createdAt,value
2023-11-14T00:00:51.590Z,100071.41
2023-11-14T00:03:18.903Z,100069.38
2023-11-14T00:05:47.848Z,100072.56
2023-11-14T00:08:15.365Z,100067.59
2023-11-14T00:10:42.619Z,100066.59
2023-11-14T00:13:09.824Z,100059.59
2023-11-14T00:15:37.134Z,100069.00
2023-11-14T00:18:04.541Z,100067.75
2023-11-14T00:20:32.045Z,100053.53
2023-11-14T00:22:59.299Z,100058.34
2023-11-14T00:25:28.469Z,100063.44
2023-11-14T00:27:55.815Z,100057.72
2023-11-14T00:30:24.023Z,100067.84
2023-11-14T00:32:51.502Z,100064.88
2023-11-14T00:35:19.547Z,100065.47
2023-11-14T00:37:46.776Z,100060.00
2023-11-14T00:40:14.824Z,100051.38
2023-11-14T00:42:42.063Z,100049.44
2023-11-14T00:45:09.595Z,100047.13
2023-11-14T00:47:37.753Z,100042.66
2023-11-14T00:50:05.362Z,100033.03
2023-11-14T00:52:32.686Z,100022.75
2023-11-14T00:55:00.006Z,100020.00
2023-11-14T00:57:27.283Z,100023.44
2023-11-14T00:59:54.791Z,100002.44
2023-11-14T01:02:22.880Z,100006.44
2023-11-14T01:04:50.420Z,100019.50
2023-11-14T01:07:18.592Z,100025.72
2023-11-14T01:09:45.790Z,100027.19
2023-11-14T01:12:13.125Z,100029.81
2023-11-14T01:14:40.978Z,100020.13
2023-11-14T01:17:08.395Z,100023.22
2023-11-14T01:19:42.049Z,100019.47
2023-11-14T01:22:10.764Z,100014.09
2023-11-14T01:24:38.351Z,100006.53
2023-11-14T01:27:05.611Z,100001.69
2023-11-14T01:29:32.888Z,99989.94
2023-11-14T01:32:00.244Z,99983.16
2023-11-14T01:34:27.583Z,99969.31
2023-11-14T01:36:58.861Z,99962.78
2023-11-14T01:39:26.405Z,99963.84
2023-11-14T01:41:54.309Z,99956.88
2023-11-14T01:44:21.671Z,99956.53
2023-11-14T01:46:49.354Z,99957.84
2023-11-14T01:49:16.898Z,99952.72
2023-11-14T01:51:44.288Z,99952.31
2023-11-14T01:54:13.206Z,99951.09
2023-11-14T01:56:42.250Z,99948.66
2023-11-14T01:59:09.898Z,99946.22
2023-11-14T02:01:37.841Z,99939.00
2023-11-14T02:04:09.949Z,99939.84
2023-11-14T02:06:37.522Z,99937.84
2023-11-14T02:09:04.921Z,99929.47
2023-11-14T02:11:32.168Z,99936.16
2023-11-14T02:14:00.046Z,99940.09
2023-11-14T02:16:28.408Z,99932.78
2023-11-14T02:18:55.672Z,99942.03
2023-11-14T02:21:25.799Z,99931.78
2023-11-14T02:23:53.483Z,99923.16
2023-11-14T02:26:22.282Z,99920.56
2023-11-14T02:28:55.860Z,99926.97
2023-11-14T02:31:23.139Z,99923.72
2023-11-14T02:33:50.332Z,99922.63
2023-11-14T02:36:17.524Z,99920.56
2023-11-14T02:38:44.699Z,99918.75
2023-11-14T02:41:12.633Z,99916.09
2023-11-14T02:43:39.874Z,99912.63
2023-11-14T02:46:07.134Z,99906.44
2023-11-14T02:48:35.289Z,99909.06
2023-11-14T02:51:02.521Z,99905.97
2023-11-14T02:53:29.808Z,99902.34
2023-11-14T02:55:58.279Z,99901.50
2023-11-14T02:58:25.533Z,99898.75
2023-11-14T03:00:53.371Z,99905.44
2023-11-14T03:03:21.259Z,99907.88
2023-11-14T03:05:48.756Z,99898.94
2023-11-14T03:08:16.150Z,99900.78
2023-11-14T03:10:46.456Z,99897.41
2023-11-14T03:13:13.779Z,99893.94
2023-11-14T03:15:42.714Z,99888.34
2023-11-14T03:18:10.069Z,99884.66
2023-11-14T03:20:37.331Z,99893.72
2023-11-14T03:23:05.321Z,99891.50
2023-11-14T03:25:33.246Z,99890.44
2023-11-14T03:28:00.877Z,99884.50
2023-11-14T03:30:28.485Z,99881.75
2023-11-14T03:32:56.249Z,99876.22
2023-11-14T03:35:24.695Z,99881.69
2023-11-14T03:37:52.073Z,99876.06
2023-11-14T03:40:19.395Z,99876.59
2023-11-14T03:42:46.692Z,99878.53
2023-11-14T03:45:13.893Z,99869.72
2023-11-14T03:47:41.135Z,99874.38
2023-11-14T03:50:09.648Z,99867.19
2023-11-14T03:52:38.665Z,99856.78
2023-11-14T03:55:06.675Z,99860.69
2023-11-14T03:57:34.088Z,99859.22
2023-11-14T04:00:01.293Z,99855.34
2023-11-14T04:02:29.474Z,99857.28
2023-11-14T04:04:56.779Z,99849.91
2023-11-14T04:07:24.687Z,99859.72
2023-11-14T04:09:51.898Z,99849.88
2023-11-14T04:12:19.144Z,99848.72
2023-11-14T04:14:48.784Z,99853.03
2023-11-14T04:17:16.158Z,99856.16
2023-11-14T04:19:45.944Z,99850.22
2023-11-14T04:22:13.332Z,99845.56
2023-11-14T04:24:40.579Z,99842.31
2023-11-14T04:27:07.780Z,99842.72
2023-11-14T04:29:34.927Z,99844.75
2023-11-14T04:32:02.178Z,99850.47
2023-11-14T04:34:29.461Z,99844.63
2023-11-14T04:36:56.660Z,99842.78
2023-11-14T04:39:23.848Z,99836.41
2023-11-14T04:41:52.230Z,99838.41
2023-11-14T04:44:19.401Z,99827.72
2023-11-14T04:46:46.924Z,99832.59
2023-11-14T04:49:14.184Z,99826.66
2023-11-14T04:51:41.466Z,99836.72
2023-11-14T04:54:08.694Z,99821.28
2023-11-14T04:56:36.069Z,99819.59
2023-11-14T04:59:04.288Z,99822.72
2023-11-14T05:01:31.890Z,99820.38
2023-11-14T05:03:59.305Z,99820.53
2023-11-14T05:06:26.586Z,99830.59
2023-11-14T05:08:53.769Z,99823.13
2023-11-14T05:11:21.353Z,99822.28
2023-11-14T05:13:48.675Z,99825.66
2023-11-14T05:16:22.502Z,99817.47
2023-11-14T05:18:51.960Z,99816.22
2023-11-14T05:21:19.307Z,99827.13
2023-11-14T05:23:46.511Z,99824.34
2023-11-14T05:26:13.856Z,99816.50
2023-11-14T05:28:41.193Z,99806.13
2023-11-14T05:31:08.923Z,99809.34
2023-11-14T05:33:36.278Z,99814.28
2023-11-14T05:36:03.634Z,99816.31
2023-11-14T05:38:30.995Z,99814.03
2023-11-14T05:40:58.347Z,99816.66
2023-11-14T05:43:25.908Z,99815.53
2023-11-14T05:45:55.224Z,99811.94
2023-11-14T05:48:22.579Z,99811.69
2023-11-14T05:50:50.227Z,99805.19
2023-11-14T05:53:17.551Z,99803.25
2023-11-14T05:55:45.032Z,99806.41
2023-11-14T05:58:12.643Z,99805.03
2023-11-14T06:00:39.924Z,99805.31
2023-11-14T06:03:07.368Z,99809.44
2023-11-14T06:05:34.892Z,99804.81
2023-11-14T06:08:02.848Z,99810.53
2023-11-14T06:10:30.584Z,99809.56
2023-11-14T06:13:00.700Z,99811.63
2023-11-14T06:15:28.181Z,99810.91
2023-11-14T06:17:55.631Z,99807.56
2023-11-14T06:20:23.845Z,99818.38
2023-11-14T06:22:51.689Z,99812.91
2023-11-14T06:25:20.915Z,99811.50
2023-11-14T06:27:48.154Z,99811.25
2023-11-14T06:30:15.473Z,99806.56
2023-11-14T06:32:42.870Z,99805.84
2023-11-14T06:35:10.582Z,99809.31
2023-11-14T06:37:38.626Z,99805.22
2023-11-14T06:40:06.249Z,99801.31
2023-11-14T06:42:34.589Z,99807.84
2023-11-14T06:45:01.839Z,99805.94
2023-11-14T06:47:30.358Z,99806.69
2023-11-14T06:49:57.720Z,99799.84
2023-11-14T06:52:25.003Z,99799.81
2023-11-14T06:54:52.209Z,99792.69
2023-11-14T06:57:19.419Z,99804.06
2023-11-14T06:59:48.183Z,99793.91
2023-11-14T07:02:15.794Z,99799.50
2023-11-14T07:04:43.259Z,99800.59
2023-11-14T07:07:11.296Z,99795.09
2023-11-14T07:09:38.613Z,99813.72
2023-11-14T07:12:06.008Z,99795.59
2023-11-14T07:14:33.281Z,99817.75
2023-11-14T07:17:00.777Z,99811.06
2023-11-14T07:19:28.110Z,99801.50
2023-11-14T07:21:56.621Z,99795.94
2023-11-14T07:24:24.174Z,99798.25
2023-11-14T07:26:51.616Z,99796.03
2023-11-14T07:29:20.689Z,99794.22
2023-11-14T07:31:48.026Z,99796.53
2023-11-14T07:34:15.475Z,99796.88
2023-11-14T07:36:42.770Z,99795.13
2023-11-14T07:39:09.936Z,99799.34
2023-11-14T07:41:37.147Z,99789.84
2023-11-14T07:44:04.746Z,99791.94
2023-11-14T07:46:32.065Z,99798.13
2023-11-14T07:49:00.009Z,99785.81
2023-11-14T07:51:27.365Z,99787.09
2023-11-14T07:53:55.520Z,99796.38
2023-11-14T07:56:23.105Z,99792.88
2023-11-14T07:58:50.873Z,99792.03
2023-11-14T08:01:18.173Z,99792.47
2023-11-14T08:03:46.141Z,99784.16
2023-11-14T08:06:13.452Z,99792.94
2023-11-14T08:08:40.617Z,99778.31
2023-11-14T08:11:07.952Z,99781.56
2023-11-14T08:13:35.665Z,99785.31
2023-11-14T08:16:03.311Z,99793.19
2023-11-14T08:18:30.557Z,99781.00
2023-11-14T08:20:57.836Z,99791.56
2023-11-14T08:23:25.325Z,99787.09
2023-11-14T08:25:52.640Z,99794.84
2023-11-14T08:28:19.819Z,99788.38
2023-11-14T08:30:47.542Z,99782.75
2023-11-14T08:33:15.860Z,99782.91
2023-11-14T08:35:43.103Z,99784.34
2023-11-14T08:38:17.179Z,99776.44
2023-11-14T08:40:49.128Z,99778.72
2023-11-14T08:43:16.383Z,99784.06
2023-11-14T08:45:43.608Z,99784.56
2023-11-14T08:48:10.840Z,99791.59
2023-11-14T08:50:40.576Z,99788.28
2023-11-14T08:53:08.087Z,99794.53
2023-11-14T08:55:35.344Z,99780.81
2023-11-14T08:58:02.723Z,99799.56
2023-11-14T09:00:31.488Z,99796.00
2023-11-14T09:02:59.937Z,99787.41
2023-11-14T09:05:28.192Z,99785.03
2023-11-14T09:07:55.500Z,99790.47
2023-11-14T09:10:23.795Z,99778.22
2023-11-14T09:12:51.074Z,99787.63
2023-11-14T09:15:18.494Z,99789.03
2023-11-14T09:17:49.577Z,99791.03
2023-11-14T09:20:19.700Z,99782.38
2023-11-14T09:22:47.038Z,99789.59
2023-11-14T09:25:15.241Z,99789.88
2023-11-14T09:27:42.860Z,99778.81
2023-11-14T09:30:10.367Z,99774.13
2023-11-14T09:32:37.734Z,99781.66
2023-11-14T09:35:05.888Z,99780.06
2023-11-14T09:37:33.266Z,99785.91
2023-11-14T09:40:00.480Z,99772.84
2023-11-14T09:42:31.062Z,99779.09
2023-11-14T09:44:58.370Z,99767.44
2023-11-14T09:47:26.748Z,99769.41
2023-11-14T09:49:54.292Z,99758.94
2023-11-14T09:52:21.837Z,99753.81
2023-11-14T09:54:49.340Z,99758.47
2023-11-14T09:57:16.871Z,99757.81
2023-11-14T09:59:44.657Z,99761.19
2023-11-14T10:02:12.515Z,99768.31
2023-11-14T10:04:40.540Z,99763.16
2023-11-14T10:07:10.601Z,99767.44
2023-11-14T10:09:39.149Z,99768.28
2023-11-14T10:12:20.309Z,99762.03
2023-11-14T10:14:51.278Z,99762.34
2023-11-14T10:17:20.431Z,99759.91
2023-11-14T10:19:56.737Z,99754.66
2023-11-14T10:22:23.974Z,99754.53
2023-11-14T10:24:51.584Z,99754.94
2023-11-14T10:27:32.479Z,99753.22
2023-11-14T10:30:00.861Z,99752.53
2023-11-14T10:32:28.497Z,99754.38
2023-11-14T10:34:56.007Z,99753.97
2023-11-14T10:37:35.251Z,99752.63
2023-11-14T10:40:08.115Z,99758.94
2023-11-14T10:42:35.549Z,99750.84
2023-11-14T10:45:09.514Z,99751.53
2023-11-14T10:47:40.856Z,99749.81
2023-11-14T10:50:25.492Z,99750.41
2023-11-14T10:52:53.254Z,99756.78
2023-11-14T10:55:24.251Z,99760.34
2023-11-14T10:57:51.797Z,99758.34
2023-11-14T11:00:19.791Z,99750.97
2023-11-14T11:02:51.826Z,99745.00
2023-11-14T11:05:27.977Z,99741.31
2023-11-14T11:08:04.021Z,99741.03
2023-11-14T11:10:32.321Z,99740.75
2023-11-14T11:13:02.180Z,99735.63
2023-11-14T11:15:29.572Z,99735.34
2023-11-14T11:18:04.574Z,99729.94
2023-11-14T11:20:33.801Z,99732.34
2023-11-14T11:23:03.511Z,99731.09
2023-11-14T11:25:32.475Z,99728.53
2023-11-14T11:28:00.257Z,99732.78
2023-11-14T11:30:27.839Z,99733.09
2023-11-14T11:32:56.717Z,99726.22
2023-11-14T11:35:25.398Z,99733.06
2023-11-14T11:37:53.991Z,99728.53
2023-11-14T11:40:22.721Z,99738.47
2023-11-14T11:42:50.008Z,99735.34
2023-11-14T11:45:29.281Z,99740.44
2023-11-14T11:47:59.902Z,99742.44
2023-11-14T11:50:31.464Z,99738.34
2023-11-14T11:53:02.613Z,99744.13
2023-11-14T11:55:30.159Z,99749.56
2023-11-14T11:58:04.284Z,99747.13
2023-11-14T12:00:31.711Z,99737.44
2023-11-14T12:02:59.629Z,99743.78
2023-11-14T12:05:28.996Z,99745.47
2023-11-14T12:07:57.589Z,99745.75
2023-11-14T12:10:26.150Z,99734.94
2023-11-14T12:12:58.536Z,99737.28
2023-11-14T12:15:26.561Z,99725.13
2023-11-14T12:17:54.974Z,99703.13
2023-11-14T12:20:23.269Z,99704.53
2023-11-14T12:22:51.229Z,99705.75
2023-11-14T12:25:19.637Z,99709.78
2023-11-14T12:27:58.011Z,99716.53
2023-11-14T12:30:27.958Z,99716.88
2023-11-14T12:33:08.537Z,99714.59
2023-11-14T12:35:47.067Z,99710.03
2023-11-14T12:38:14.647Z,99712.63
2023-11-14T12:40:41.864Z,99708.34
2023-11-14T12:43:10.461Z,99703.22
2023-11-14T12:45:47.472Z,99713.19
2023-11-14T12:48:14.733Z,99710.91
2023-11-14T12:50:42.186Z,99708.91
2023-11-14T12:53:13.192Z,99698.13
2023-11-14T12:55:41.916Z,99710.22
2023-11-14T12:58:09.613Z,99700.09
2023-11-14T13:00:37.022Z,99704.38
2023-11-14T13:03:04.456Z,99698.97
2023-11-14T13:05:32.354Z,99704.94
2023-11-14T13:07:59.791Z,99699.81
2023-11-14T13:10:27.266Z,99708.91
2023-11-14T13:12:54.483Z,99695.56
2023-11-14T13:15:21.697Z,99700.09
2023-11-14T13:17:48.956Z,99698.09
2023-11-14T13:20:16.296Z,99698.69
2023-11-14T13:22:46.817Z,99699.53
2023-11-14T13:25:15.038Z,99698.13
2023-11-14T13:27:42.614Z,99698.97
2023-11-14T13:30:09.999Z,99694.25
2023-11-14T13:32:37.405Z,99691.84
2023-11-14T13:35:07.604Z,99704.09
2023-11-14T13:37:35.250Z,99701.25
2023-11-14T13:40:07.649Z,99693.31
2023-11-14T13:42:36.035Z,99687.47
2023-11-14T13:45:03.556Z,99691.44
2023-11-14T13:47:32.548Z,99694.13
2023-11-14T13:50:06.663Z,99695.84
2023-11-14T13:52:33.966Z,99696.72
2023-11-14T13:55:01.222Z,99701.41
2023-11-14T13:57:28.540Z,99705.81
2023-11-14T13:59:56.687Z,99701.53
2023-11-14T14:02:24.125Z,99702.25
2023-11-14T14:04:51.935Z,99691.59
2023-11-14T14:07:19.163Z,99696.16
2023-11-14T14:09:46.364Z,99693.84
2023-11-14T14:12:14.377Z,99691.59
2023-11-14T14:14:41.747Z,99689.31
2023-11-14T14:17:10.553Z,99694.03
2023-11-14T14:19:37.867Z,99699.28
2023-11-14T14:22:06.241Z,99690.44
2023-11-14T14:24:33.452Z,99693.16
2023-11-14T14:27:01.288Z,99695.16
2023-11-14T14:29:28.560Z,99692.75
2023-11-14T14:31:56.069Z,99694.41
2023-11-14T14:34:23.259Z,99693.81
2023-11-14T14:36:50.441Z,99694.16
2023-11-14T14:39:17.791Z,99687.91
2023-11-14T14:41:45.028Z,99686.44
2023-11-14T14:44:15.362Z,99680.53
2023-11-14T14:46:42.635Z,99690.44
2023-11-14T14:49:09.815Z,99691.31
2023-11-14T14:51:38.149Z,99691.28
2023-11-14T14:54:06.615Z,99691.56
2023-11-14T14:56:33.946Z,99694.38
2023-11-14T14:59:01.469Z,99692.56
2023-11-14T15:01:31.139Z,99687.44
2023-11-14T15:03:58.463Z,99687.59
2023-11-14T15:06:27.897Z,99681.91
2023-11-14T15:08:55.196Z,99686.75
2023-11-14T15:11:23.254Z,99678.69
2023-11-14T15:13:50.557Z,99686.84
2023-11-14T15:16:17.822Z,99687.31
2023-11-14T15:18:46.101Z,99686.38
2023-11-14T15:21:13.832Z,99689.84
2023-11-14T15:23:42.271Z,99681.84
2023-11-14T15:26:09.501Z,99682.56
2023-11-14T15:28:37.276Z,99680.75
2023-11-14T15:31:04.770Z,99676.19
2023-11-14T15:33:32.263Z,99673.34
2023-11-14T15:36:00.478Z,99677.34
2023-11-14T15:38:27.681Z,99685.56
2023-11-14T15:40:54.903Z,99683.03
2023-11-14T15:43:22.108Z,99680.47
2023-11-14T15:45:49.379Z,99679.88
2023-11-14T15:48:20.808Z,99688.72
2023-11-14T15:50:50.425Z,99680.75
2023-11-14T15:53:18.150Z,99676.34
2023-11-14T15:55:45.426Z,99684.44
2023-11-14T15:58:12.606Z,99687.00
2023-11-14T16:00:39.884Z,99696.69
2023-11-14T16:03:07.194Z,99698.41
2023-11-14T16:05:35.087Z,99697.59
2023-11-14T16:08:02.350Z,99702.94
2023-11-14T16:10:29.626Z,99704.94
2023-11-14T16:12:56.819Z,99694.09
2023-11-14T16:15:23.989Z,99693.84
2023-11-14T16:17:52.288Z,99687.56
2023-11-14T16:20:21.414Z,99688.72
2023-11-14T16:22:48.740Z,99690.72
2023-11-14T16:25:16.055Z,99685.88
2023-11-14T16:27:43.262Z,99690.44
2023-11-14T16:30:11.210Z,99688.13
2023-11-14T16:32:38.483Z,99685.72
2023-11-14T16:35:05.937Z,99696.97
2023-11-14T16:37:33.966Z,99688.97
2023-11-14T16:40:01.621Z,99698.38
2023-11-14T16:42:28.896Z,99688.28
2023-11-14T16:44:56.080Z,99688.66
2023-11-14T16:47:23.360Z,99695.72
2023-11-14T16:49:51.344Z,99685.63
2023-11-14T16:52:18.963Z,99690.72
2023-11-14T16:54:46.136Z,99690.44
2023-11-14T16:57:14.082Z,99693.81
2023-11-14T16:59:45.490Z,99695.88
2023-11-14T17:02:13.104Z,99690.19
2023-11-14T17:04:40.438Z,99700.09
2023-11-14T17:07:07.808Z,99696.97
2023-11-14T17:09:35.220Z,99699.78
2023-11-14T17:12:02.415Z,99701.81
2023-11-14T17:14:29.704Z,99697.56
2023-11-14T17:16:56.959Z,99710.97
2023-11-14T17:19:26.002Z,99708.88
2023-11-14T17:21:53.587Z,99700.66
2023-11-14T17:24:20.767Z,99699.06
2023-11-14T17:26:49.309Z,99696.59
2023-11-14T17:29:16.582Z,99697.00
2023-11-14T17:31:44.437Z,99693.28
2023-11-14T17:34:11.687Z,99685.91
2023-11-14T17:36:39.348Z,99684.50
2023-11-14T17:39:10.583Z,99694.56
2023-11-14T17:41:38.133Z,99696.72
2023-11-14T17:44:05.514Z,99700.69
2023-11-14T17:46:32.746Z,99698.69
2023-11-14T17:49:00.295Z,99698.94
2023-11-14T17:51:37.810Z,99697.56
2023-11-14T17:54:06.820Z,99694.84
2023-11-14T17:56:34.411Z,99695.00
2023-11-14T17:59:01.891Z,99692.19
2023-11-14T18:01:30.395Z,99695.28
2023-11-14T18:03:58.178Z,99697.16
2023-11-14T18:06:25.521Z,99693.00
2023-11-14T18:08:52.807Z,99688.19
2023-11-14T18:11:20.238Z,99689.84
2023-11-14T18:13:47.458Z,99695.53
2023-11-14T18:16:14.624Z,99687.56
2023-11-14T18:18:42.468Z,99694.66
2023-11-14T18:21:11.543Z,99689.56
2023-11-14T18:23:39.120Z,99688.94
2023-11-14T18:26:06.635Z,99689.22
2023-11-14T18:28:33.888Z,99686.44
2023-11-14T18:31:01.113Z,99695.53
2023-11-14T18:33:28.410Z,99695.19
2023-11-14T18:35:59.602Z,99687.22
2023-11-14T18:38:26.882Z,99692.38
2023-11-14T18:40:54.956Z,99698.63
2023-11-14T18:43:22.410Z,99687.56
2023-11-14T18:45:51.601Z,99694.66
2023-11-14T18:48:19.760Z,99699.22
2023-11-14T18:50:48.592Z,99699.75
2023-11-14T18:53:19.895Z,99700.81
2023-11-14T18:55:47.841Z,99700.66
2023-11-14T18:58:18.961Z,99696.41
2023-11-14T19:00:46.270Z,99703.94
2023-11-14T19:03:13.779Z,99710.88
2023-11-14T19:05:41.093Z,99709.47
2023-11-14T19:08:08.726Z,99701.81
2023-11-14T19:10:36.268Z,99705.22
2023-11-14T19:13:03.557Z,99709.59
2023-11-14T19:15:31.071Z,99708.31
2023-11-14T19:18:00.075Z,99682.47
2023-11-14T19:20:30.254Z,99705.66
2023-11-14T19:23:39.421Z,99700.50
2023-11-14T19:25:48.070Z,99708.59
2023-11-14T19:28:15.371Z,99707.59
2023-11-14T19:30:43.098Z,99705.22
2023-11-14T19:33:11.574Z,99707.75
2023-11-14T19:35:39.027Z,99707.38
2023-11-14T19:38:06.327Z,99707.50
2023-11-14T19:40:33.579Z,99707.34
2023-11-14T19:43:01.374Z,99700.06
2023-11-14T19:45:28.532Z,99707.66
2023-11-14T19:47:55.829Z,99706.94
2023-11-14T19:50:23.554Z,99711.75
2023-11-14T19:52:51.033Z,99708.63
2023-11-14T19:55:18.240Z,99714.31
2023-11-14T19:57:45.443Z,99718.59
2023-11-14T20:00:15.679Z,99711.00
2023-11-14T20:02:43.610Z,99710.03
2023-11-14T20:05:11.868Z,99714.59
2023-11-14T20:07:39.235Z,99711.53
2023-11-14T20:10:07.884Z,99709.69
2023-11-14T20:12:38.127Z,99707.75
2023-11-14T20:15:05.611Z,99707.22
2023-11-14T20:17:33.148Z,99710.06
2023-11-14T20:20:00.647Z,99710.63
2023-11-14T20:22:32.733Z,99707.59
2023-11-14T20:24:59.984Z,99711.75
2023-11-14T20:27:27.237Z,99713.91
2023-11-14T20:29:54.583Z,99709.50
2023-11-14T20:32:22.615Z,99715.59
2023-11-14T20:34:49.840Z,99710.91
2023-11-14T20:37:17.341Z,99717.88
2023-11-14T20:39:44.582Z,99713.31
2023-11-14T20:42:11.770Z,99715.72
2023-11-14T20:44:40.465Z,99708.03
2023-11-14T20:47:09.487Z,99708.31
2023-11-14T20:49:36.803Z,99711.59
2023-11-14T20:52:04.266Z,99717.66
2023-11-14T20:54:31.459Z,99711.44
2023-11-14T20:56:59.637Z,99717.72
2023-11-14T20:59:26.904Z,99720.25
2023-11-14T21:01:54.148Z,99710.09
2023-11-14T21:04:21.467Z,99713.97
2023-11-14T21:06:48.661Z,99705.66
2023-11-14T21:09:17.070Z,99710.81
2023-11-14T21:11:45.314Z,99707.56
2023-11-14T21:14:12.738Z,99706.31
2023-11-14T21:16:40.369Z,99697.72
2023-11-14T21:19:07.683Z,99712.63
2023-11-14T21:21:34.883Z,99711.75
2023-11-14T21:24:02.435Z,99712.59
2023-11-14T21:26:30.002Z,99702.59
2023-11-14T21:28:57.493Z,99697.78
2023-11-14T21:31:27.836Z,99703.63
2023-11-14T21:33:55.286Z,99715.63
2023-11-14T21:36:23.195Z,99714.41
2023-11-14T21:38:50.755Z,99719.31
2023-11-14T21:41:21.587Z,99719.25
2023-11-14T21:43:49.134Z,99716.94
2023-11-14T21:46:16.333Z,99724.59
2023-11-14T21:48:43.570Z,99722.53
2023-11-14T21:51:10.733Z,99720.53
2023-11-14T21:53:38.153Z,99723.47
2023-11-14T21:56:05.571Z,99733.84
2023-11-14T21:58:32.955Z,99726.81
2023-11-14T22:01:00.194Z,99729.50
2023-11-14T22:03:27.594Z,99725.25
2023-11-14T22:05:55.007Z,99733.00
2023-11-14T22:08:23.237Z,99733.97
2023-11-14T22:10:50.577Z,99739.94
2023-11-14T22:13:18.171Z,99739.34
2023-11-14T22:15:46.400Z,99742.88
2023-11-14T22:18:15.673Z,99739.75
2023-11-14T22:20:43.598Z,99742.88
2023-11-14T22:23:10.866Z,99745.94
2023-11-14T22:25:38.070Z,99752.44
2023-11-14T22:28:05.263Z,99742.97
2023-11-14T22:30:32.981Z,99749.25
2023-11-14T22:33:00.236Z,99745.44
2023-11-14T22:35:27.514Z,99748.53
2023-11-14T22:37:54.707Z,99755.00
2023-11-14T22:40:23.073Z,99763.84
2023-11-14T22:42:51.444Z,99764.91
2023-11-14T22:45:18.787Z,99770.06
2023-11-14T22:47:46.138Z,99763.31
2023-11-14T22:50:13.859Z,99771.88
2023-11-14T22:52:41.587Z,99770.56
2023-11-14T22:55:08.927Z,99768.69
2023-11-14T22:57:36.113Z,99771.66
2023-11-14T23:00:04.064Z,99777.75
2023-11-14T23:02:31.558Z,99767.41
2023-11-14T23:04:59.781Z,99771.38
2023-11-14T23:07:26.973Z,99751.13
2023-11-14T23:09:54.949Z,99789.44
2023-11-14T23:12:22.141Z,99783.00
2023-11-14T23:14:49.604Z,99780.72
2023-11-14T23:17:16.822Z,99779.41
2023-11-14T23:19:43.995Z,99782.16
2023-11-14T23:22:12.252Z,99776.09
2023-11-14T23:24:44.948Z,99776.63
2023-11-14T23:27:12.223Z,99782.78
2023-11-14T23:29:39.488Z,99788.09
2023-11-14T23:32:07.015Z,99783.66
2023-11-14T23:34:34.209Z,99785.97
2023-11-14T23:37:01.465Z,99797.22
2023-11-14T23:39:28.753Z,99791.47
2023-11-14T23:41:55.988Z,99787.69
2023-11-14T23:44:23.270Z,99791.78
2023-11-14T23:46:50.520Z,99795.03
2023-11-14T23:49:17.982Z,99802.69
2023-11-14T23:51:45.294Z,99792.63
2023-11-14T23:54:12.478Z,99795.59
2023-11-14T23:56:40.864Z,99795.59
2023-11-14T23:59:08.100Z,99791.69
